メインページ
METAR-TAF:

METAR-TAF

空港 :

ポンタ・デルガダ空港

ポンタ・デルガダ, アゾレス諸島, ポルトガル

緯度: 37-44N, 経度: 025-42W, 海抜: 71m

現時点の気象観測

当レポートは20分前の05:30(UTC)に作成
北/北東の風 12kt、から東/北東の間で変化する
気温 18°C
湿度 88%
気圧 1024 hPa
視程10km以上
高度1100ftの雲は散在している
高度1700ftの雲は散在している
弱いにわか雨

METAR: LPPD 220530Z 03012KT 360V070 9999 -SHRA SCT011 SCT017 18/16 Q1024

時間: 05:50 (05:50 UTC)

予報

当レポートは50分前の05:00(UTC)に作成
予報は22日の 06時(UTC)から 23日の 06時(UTC)まで有効
北東の風 18kt、最大30ktの突風を伴う
視程10km以上
高度1200ftの雲は散在している
高度2000ftの千切れ雲あり
22日の 06時(UTC)から 23日の 06時(UTC)まで一時的に
北東の風 15kt
視程: 5000m
高度600ftの雲は散在している
高度1200ftの千切れ雲あり
高度1800ftの雲はほとんどない, 塔状積雲.
にわか雨
確率 40% :
22日の 09時(UTC)から 23日の 03時(UTC)まで一時的に
北東の風 25kt、最大40ktの突風を伴う
確率 30% :
23日の 00時(UTC)から 23日の 06時(UTC)まで一時的に
視程: 2000m
高度1800ftの雲は散在している, 積乱雲.
激しい雷雨, 雨

TAF: LPPD 220500Z 2206/2306 04018G30KT 9999 SCT012 BKN020 TEMPO 2206/2306 04015KT 5000 SHRA SCT006 BKN012 FEW018TCU PROB40 TEMPO 2209/2303 04025G40KT PROB30 TEMPO 2300/2306 2000 TSRA SCT018CB

4,000以上の空港の気象観測と天気予報(METAR報とTAF報)

利用可能な観測所は地図上に黄色い丸と赤い丸で示す。

丸の上にカーソルを重ねると観測所名を参照できる。

次にクリックすると気象観測と天気予報を参照できる。

マップの切り替え:黒色「×」印の緑ボタンをクリックして拡大、「-」印の緑ボタンをクリックして縮小、緑色の三角印をクリックして隣りの地図に切り替え


METAR-TAF: